createdAt,value
2018-04-22T00:35:23.411Z,21.30
2018-04-22T00:37:54.299Z,20.93
2018-04-22T00:40:23.243Z,22.37
2018-04-22T00:42:52.023Z,21.10
2018-04-22T00:45:31.404Z,22.30
2018-04-22T00:47:59.456Z,21.77
2018-04-22T00:50:29.484Z,21.30
2018-04-22T00:53:01.312Z,20.63
2018-04-22T00:55:34.936Z,21.30
2018-04-22T00:58:04.720Z,22.20
2018-04-22T01:03:06.837Z,18.60
2018-04-22T01:33:51.926Z,24.60
2018-04-22T01:57:07.223Z,24.70
2018-04-22T02:07:15.276Z,24.00
2018-04-22T02:20:17.168Z,27.10
2018-04-22T02:28:00.347Z,27.07
2018-04-22T02:35:43.773Z,27.33
2018-04-22T02:45:58.233Z,29.13
2018-04-22T02:58:57.535Z,28.93
2018-04-22T03:01:28.592Z,29.30
2018-04-22T03:09:06.099Z,28.40
2018-04-22T03:11:34.511Z,28.30
2018-04-22T03:14:03.539Z,27.17
2018-04-22T03:16:38.899Z,26.50
2018-04-22T03:19:06.970Z,26.40
2018-04-22T03:21:36.983Z,26.00
2018-04-22T03:24:07.415Z,27.20
2018-04-22T03:26:37.818Z,25.70
2018-04-22T03:29:18.714Z,27.30
2018-04-22T03:31:48.922Z,27.90
2018-04-22T03:34:18.954Z,27.50
2018-04-22T03:36:47.242Z,26.83
2018-04-22T03:39:20.299Z,26.17
2018-04-22T03:41:49.283Z,26.37
2018-04-22T03:44:19.541Z,29.17
2018-04-22T03:46:48.528Z,26.83
2018-04-22T03:49:16.784Z,25.40
2018-04-22T03:51:45.908Z,25.10
2018-04-22T03:56:48.076Z,26.87
2018-04-22T03:59:21.179Z,27.40
2018-04-22T04:01:51.160Z,28.40
2018-04-22T04:04:21.732Z,28.27
2018-04-22T04:06:50.808Z,28.67
2018-04-22T04:09:30.224Z,28.90
2018-04-22T04:12:06.176Z,27.70
2018-04-22T04:14:37.652Z,29.13
2018-04-22T04:17:05.728Z,29.80
2018-04-22T04:19:48.904Z,29.93
2018-04-22T04:22:28.860Z,27.63
2018-04-22T04:28:09.745Z,31.77
2018-04-22T04:30:44.148Z,31.20
2018-04-22T04:33:12.192Z,30.57
2018-04-22T04:38:14.317Z,30.30
2018-04-22T04:40:43.619Z,28.07
2018-04-22T04:43:15.299Z,29.07
2018-04-22T04:45:49.943Z,31.13
2018-04-22T04:48:22.636Z,30.97
2018-04-22T04:50:52.927Z,35.57
2018-04-22T04:53:22.756Z,39.00
2018-04-22T04:56:03.275Z,38.40
2018-04-22T04:58:37.344Z,37.07
2018-04-22T05:01:07.024Z,36.50
2018-04-22T05:03:36.215Z,37.63
2018-04-22T05:06:06.003Z,35.47
2018-04-22T05:08:34.976Z,35.80
2018-04-22T05:11:03.996Z,36.70
2018-04-22T05:13:46.923Z,37.97
2018-04-22T05:16:17.647Z,33.67
2018-04-22T05:18:51.031Z,33.17
2018-04-22T05:21:19.071Z,33.23
2018-04-22T05:23:47.099Z,34.00
2018-04-22T05:26:16.071Z,32.97
2018-04-22T05:28:44.100Z,31.77
2018-04-22T05:31:13.185Z,31.00
2018-04-22T05:33:42.116Z,33.90
2018-04-22T05:36:11.056Z,31.07
2018-04-22T05:38:39.107Z,29.10
2018-04-22T05:41:13.405Z,30.57
2018-04-22T05:43:43.415Z,28.97
2018-04-22T05:46:18.303Z,31.30
2018-04-22T05:48:46.357Z,28.13
2018-04-22T05:51:15.307Z,31.47
2018-04-22T05:53:43.351Z,31.67
2018-04-22T05:56:12.379Z,29.23
2018-04-22T05:58:42.455Z,28.07
2018-04-22T06:01:11.699Z,27.20
2018-04-22T06:03:39.716Z,25.60
2018-04-22T06:06:09.683Z,25.83
2018-04-22T06:08:37.722Z,25.60
2018-04-22T06:11:06.756Z,24.17
2018-04-22T06:13:41.639Z,23.00
2018-04-22T06:16:10.663Z,23.30
2018-04-22T06:18:40.696Z,22.73
2018-04-22T06:21:12.867Z,22.50
2018-04-22T06:23:42.655Z,20.47
2018-04-22T06:26:10.691Z,18.90
2018-04-22T06:31:11.291Z,19.10
2018-04-22T06:33:41.335Z,19.70
2018-04-22T06:36:15.617Z,18.37
2018-04-22T06:38:56.059Z,18.13
2018-04-22T06:41:33.862Z,17.73
2018-04-22T06:44:13.583Z,19.07
2018-04-22T06:46:42.600Z,17.43
2018-04-22T06:49:13.548Z,19.30
2018-04-22T06:51:41.595Z,17.83
2018-04-22T06:54:16.935Z,18.17
2018-04-22T06:56:48.007Z,17.33
2018-04-22T06:59:18.726Z,15.87
2018-04-22T07:02:05.159Z,17.80
2018-04-22T07:04:45.831Z,16.13
2018-04-22T07:07:13.867Z,15.60
2018-04-22T07:09:41.920Z,14.57
2018-04-22T07:12:10.839Z,14.80
2018-04-22T07:14:43.619Z,15.10
2018-04-22T07:17:11.657Z,14.80
2018-04-22T07:19:43.152Z,15.83
2018-04-22T07:22:14.875Z,16.00
2018-04-22T07:24:42.905Z,15.40
2018-04-22T07:27:15.143Z,16.87
2018-04-22T07:29:43.195Z,16.77
2018-04-22T07:32:32.607Z,16.13
2018-04-22T07:35:06.375Z,15.90
2018-04-22T07:37:40.783Z,17.47
2018-04-22T07:40:09.799Z,16.13
2018-04-22T07:42:42.890Z,15.20
2018-04-22T07:45:15.343Z,15.90
2018-04-22T07:47:48.102Z,15.90
2018-04-22T07:50:20.810Z,15.67
2018-04-22T07:52:48.838Z,16.37
2018-04-22T07:55:17.767Z,14.53
2018-04-22T07:57:51.022Z,14.30
2018-04-22T08:00:19.950Z,15.70
2018-04-22T08:02:47.978Z,15.07
2018-04-22T08:05:17.922Z,14.97
2018-04-22T08:07:45.963Z,15.23
2018-04-22T08:10:16.732Z,14.70
2018-04-22T08:12:43.926Z,15.23
2018-04-22T08:15:11.955Z,14.77
2018-04-22T08:17:40.943Z,15.90
2018-04-22T08:20:08.970Z,14.87
2018-04-22T08:22:41.894Z,14.13
2018-04-22T08:28:07.430Z,14.20
2018-04-22T08:30:36.463Z,13.73
2018-04-22T08:33:24.139Z,13.37
2018-04-22T08:36:04.666Z,13.20
2018-04-22T08:38:38.335Z,12.17
2018-04-22T08:41:08.131Z,11.73
2018-04-22T08:43:41.788Z,12.57
2018-04-22T08:46:10.865Z,12.07
2018-04-22T08:48:47.246Z,13.20
2018-04-22T08:51:15.269Z,11.20
2018-04-22T08:53:43.278Z,12.13
2018-04-22T08:56:16.926Z,10.90
2018-04-22T08:58:48.794Z,11.20
2018-04-22T09:01:16.806Z,11.57
2018-04-22T09:03:51.022Z,11.90
2018-04-22T09:06:19.951Z,10.87
2018-04-22T09:08:54.435Z,11.20
2018-04-22T09:11:22.462Z,10.30
2018-04-22T09:13:50.478Z,11.20
2018-04-22T09:16:19.518Z,10.80
2018-04-22T09:18:47.718Z,10.77
2018-04-22T09:21:21.286Z,9.97
2018-04-22T09:24:08.559Z,9.97
2018-04-22T09:26:53.194Z,10.17
2018-04-22T09:29:40.926Z,10.60
2018-04-22T09:32:10.709Z,10.93
2018-04-22T09:34:41.746Z,10.30
2018-04-22T09:37:09.797Z,10.50
2018-04-22T09:39:46.037Z,10.73
2018-04-22T09:42:18.246Z,10.10
2018-04-22T09:44:54.682Z,9.50
2018-04-22T09:47:25.961Z,8.33
2018-04-22T09:50:01.495Z,8.53
2018-04-22T09:52:37.869Z,7.87
2018-04-22T09:55:23.234Z,7.90
2018-04-22T09:57:53.161Z,8.73
2018-04-22T10:00:32.345Z,8.37
2018-04-22T10:03:07.153Z,7.47
2018-04-22T10:05:43.571Z,7.40
2018-04-22T10:08:25.629Z,7.07
2018-04-22T10:11:14.925Z,7.27
2018-04-22T10:13:48.925Z,6.10
2018-04-22T10:16:30.444Z,5.83
2018-04-22T10:19:22.645Z,5.97
2018-04-22T10:21:50.700Z,6.77
2018-04-22T10:24:23.129Z,6.57
2018-04-22T10:26:56.841Z,4.90
2018-04-22T10:29:42.245Z,5.50
2018-04-22T10:32:16.425Z,4.47
2018-04-22T10:34:48.097Z,4.03
2018-04-22T10:37:21.994Z,4.90
2018-04-22T10:39:57.834Z,5.10
2018-04-22T10:42:34.313Z,5.30
2018-04-22T10:45:03.223Z,5.80
2018-04-22T10:47:41.097Z,6.57
2018-04-22T10:50:28.509Z,5.40
2018-04-22T10:52:58.459Z,4.97
2018-04-22T10:55:27.417Z,5.53
2018-04-22T10:57:59.653Z,5.90
2018-04-22T11:00:32.260Z,5.43
2018-04-22T11:03:16.669Z,5.40
2018-04-22T11:05:47.349Z,5.70
2018-04-22T11:08:21.718Z,5.60
2018-04-22T11:10:50.497Z,4.87
2018-04-22T11:13:31.117Z,5.17
2018-04-22T11:15:59.125Z,5.20
2018-04-22T11:18:39.737Z,5.90
2018-04-22T11:21:09.681Z,5.60
2018-04-22T11:23:41.545Z,4.57
2018-04-22T11:26:24.801Z,4.90
2018-04-22T11:29:15.217Z,5.30
2018-04-22T11:31:45.181Z,6.40
2018-04-22T11:34:13.482Z,5.20
2018-04-22T11:36:41.521Z,5.70
2018-04-22T11:39:09.545Z,5.47
2018-04-22T11:41:41.246Z,5.03
2018-04-22T11:44:09.297Z,5.57
2018-04-22T11:46:38.313Z,5.23
2018-04-22T11:49:09.052Z,6.10
2018-04-22T11:51:43.265Z,6.33
2018-04-22T11:54:11.285Z,6.63
2018-04-22T11:56:40.245Z,7.07
2018-04-22T11:59:09.204Z,6.13
2018-04-22T12:01:37.228Z,5.80
2018-04-22T12:04:07.005Z,5.63
2018-04-22T12:06:40.284Z,5.80
2018-04-22T12:09:08.333Z,6.50
2018-04-22T12:11:39.125Z,5.93
2018-04-22T12:14:07.917Z,5.50
2018-04-22T12:16:36.925Z,5.33
2018-04-22T12:19:05.881Z,5.97
2018-04-22T12:21:33.899Z,5.13
2018-04-22T12:24:01.921Z,5.80
2018-04-22T12:26:35.725Z,4.73
2018-04-22T12:29:03.757Z,5.40
2018-04-22T12:31:35.041Z,6.03
2018-04-22T12:34:04.022Z,6.00
